EW0860 Weather Reports


Display with metric or nautical units.
time (UTC)temp
F
wind
direction
speed
MPH
gust
MPH
rain 1hr
in
rain 24hr
in
rain mn
in
humidity
%
barometer
mb
20240619230058 70 348 1.0 3.0 0.03 2.10 2.10 95 1018.1
20240619224557 69 37 2.0 4.0 0.15 2.10 2.10 95 1018.0
20240619223056 69 23 2.0 5.0 0.20 2.10 2.10 95 1018.3
20240619221558 69 34 1.0 4.0 0.28 2.10 2.10 95 1018.3
20240619220103 69 322 0.0 4.0 0.35 2.06 2.06 95 1018.7
20240619214555 69 332 0.0 3.0 0.51 1.95 1.95 95 1018.9
20240619213120 69 332 0.0 2.0 0.53 1.90 1.90 95 1018.7
20240619211552 70 337 0.0 3.0 0.48 1.82 1.82 94 1018.6
20240619210053 70 266 0.0 3.0 0.39 1.71 1.71 94 1018.7
20240619204552 70 293 0.0 2.0 0.13 1.44 1.44 94 1018.4
20240619203058 70 293 1.0 6.0 0.09 1.36 1.36 94 1018.5
20240619201551 70 308 2.0 7.0 0.07 1.34 1.34 94 1018.3
20240619200051 71 289 1.0 5.0 0.05 1.32 1.32 94 1018.4
20240619194550 71 334 1.0 3.0 0.04 1.31 1.31 94 1018.5
20240619193050 70 322 1.0 6.0 0.00 1.27 1.27 94 1018.5
20240619191548 70 312 4.0 9.0 0.03 1.27 1.27 94 1018.4
20240619190053 70 340 2.0 5.0 0.19 1.27 1.27 95 1018.6
20240619184557 69 318 3.0 7.0 0.22 1.27 1.27 94 1018.8
20240619183049 69 327 2.0 4.0 0.28 1.27 1.27 95 1018.8
20240619181549 69 236 0.0 2.0 0.43 1.20 1.20 95 1018.9
20240619180052 69 236 1.0 2.0 0.44 1.08 1.08 95 1018.9
20240619174546 69 236 0.0 2.0 0.53 1.05 1.05 94 1018.6
20240619173045 69 333 0.0 4.0 0.52 0.98 0.98 94 1018.8
20240619171543 69 249 0.0 3.0 0.33 0.76 0.76 94 1019.1
20240619170042 69 253 1.0 6.0 0.22 0.63 0.63 94 1018.7
20240619164539 70 271 2.0 5.0 0.10 0.51 0.51 93 1018.7
20240619163042 70 308 3.0 7.0 0.04 0.45 0.45 93 1018.2
20240619161552 71 295 2.0 7.0 0.02 0.43 0.43 93 1018.5
20240619160048 71 262 3.0 9.0 0.00 0.41 0.41 93 1018.1
20240619154539 71 263 2.0 5.0 0.00 0.41 0.41 93 1017.6
20240619153036 71 219 1.0 4.0 0.00 0.41 0.41 94 1017.1
20240619151531 70 174 0.0 3.0 0.00 0.41 0.41 94 1016.7
20240619150029 70 174 0.0 4.0 0.01 0.41 0.41 94 1016.5
20240619144529 69 114 2.0 4.0 0.02 0.41 0.41 94 1016.2
20240619143029 69 181 1.0 2.0 0.04 0.41 0.41 95 1016.4
20240619141529 69 68 0.0 3.0 0.11 0.41 0.41 95 1016.4
20240619140039 69 68 1.0 4.0 0.21 0.40 0.40 94 1017.0
20240619134532 69 218 0.0 2.0 0.21 0.39 0.39 94 1017.3
20240619133031 69 218 0.0 3.0 0.21 0.37 0.37 94 1017.0
20240619131535 69 220 0.0 2.0 0.18 0.30 0.30 94 1016.8
20240619130022 69 220 0.0 3.0 0.08 0.19 0.19 94 1016.4
20240619124534 69 220 1.0 3.0 0.09 0.18 0.18 94 1015.8
20240619123020 69 220 0.0 0.0 0.08 0.16 0.16 94 1016.0
20240619121515 69 220 0.0 0.0 0.04 0.12 0.12 94 1015.6
20240619120012 69 220 0.0 3.0 0.03 0.11 0.11 93 1015.2
20240619114511 69 217 0.0 5.0 0.01 0.09 0.09 93 1015.0
20240619113014 70 149 0.0 3.0 0.00 0.08 0.08 93 1014.3
20240619111510 70 149 0.0 3.0 0.01 0.08 0.08 93 1014.8
20240619110004 70 117 0.0 0.0 0.08 0.08 0.08 92 1014.7
20240619104502 70 117 0.0 2.0 0.08 0.08 0.08 92 1015.0
20240619103059 70 117 0.0 2.0 0.08 0.08 0.08 91 1014.8
20240619101618 71 117 0.0 3.0 0.07 0.07 0.07 89 1014.9
20240619100101 71 116 1.0 3.0 0.01 0.01 0.01 87 1014.5
20240619094551 72 180 2.0 4.0 0.00 0.00 0.00 86 1014.2
20240619093051 72 77 3.0 7.0 0.00 0.00 0.00 86 1013.8
20240619091548 72 152 2.0 6.0 0.00 0.00 0.00 85 1013.6
20240619090046 72 138 4.0 9.0 0.00 0.00 0.00 85 1013.4
20240619084551 72 28 2.0 5.0 0.00 0.00 0.00 85 1013.6
20240619083043 73 314 3.0 9.0 0.00 0.00 0.00 83 1013.7
20240619081539 73 337 2.0 9.0 0.00 0.00 0.00 81 1013.6
20240619080035 74 354 2.0 5.0 0.00 0.00 0.00 79 1013.4
20240619074532 75 67 0.0 6.0 0.00 0.00 0.00 78 1013.2
20240619073030 77 332 3.0 8.0 0.00 0.00 0.00 75 1012.8
20240619071533 81 260 0.0 7.0 0.00 0.00 0.00 69 1012.5
20240619070020 81 216 1.0 4.0 0.00 0.00 0.00 70 1012.0
20240619064518 81 102 0.0 6.0 0.00 0.00 0.00 70 1011.8
20240619063017 81 144 0.0 3.0 0.00 0.00 0.00 70 1011.7
20240619061516 81 174 2.0 3.0 0.00 0.00 0.00 70 1011.5
20240619060014 81 183 2.0 7.0 0.00 0.00 0.00 70 1011.3
20240619054512 81 191 0.0 3.0 0.00 0.00 0.00 70 1011.2
20240619053019 81 216 0.0 2.0 0.00 0.00 0.00 70 1010.9
20240619051511 81 59 0.0 5.0 0.00 0.00 0.00 70 1010.6
20240619050006 81 174 1.0 4.0 0.00 0.00 0.00 70 1010.5
20240619044504 81 235 0.0 6.0 0.00 0.00 0.00 70 1010.2
20240619043003 82 265 2.0 7.0 0.00 0.00 0.00 70 1010.1
20240619041503 82 116 3.0 8.0 0.00 0.00 0.00 70 1009.9
20240619040002 82 102 3.0 5.0 0.00 0.00 0.00 69 1009.9
20240619034502 82 101 4.0 7.0 0.00 0.00 0.00 69 1009.9
20240619033000 83 75 1.0 7.0 0.00 0.00 0.00 68 1010.1
20240619031500 83 136 1.0 4.0 0.00 0.00 0.00 68 1009.9
20240619030113 83 129 1.0 8.0 0.00 0.00 0.00 67 1009.9
20240619024608 83 147 1.0 5.0 0.00 0.00 0.00 67 1009.8
20240619023056 83 177 0.0 2.0 0.00 0.00 0.00 67 1009.4
20240619021553 84 167 0.0 3.0 0.00 0.00 0.00 66 1009.0
20240619020055 84 143 2.0 7.0 0.00 0.00 0.00 65 1008.6
20240619014550 85 214 0.0 5.0 0.00 0.00 0.00 64 1008.5
20240619013057 85 135 2.0 9.0 0.00 0.00 0.00 64 1008.3
20240619011553 85 148 1.0 7.0 0.00 0.00 0.00 63 1008.2
20240619010045 86 109 1.0 7.0 0.00 0.00 0.00 62 1007.9
20240619004548 86 92 1.0 7.0 0.00 0.00 0.00 62 1007.5
20240619003042 86 100 2.0 7.0 0.00 0.00 0.00 62 1007.3
20240619001541 87 205 2.0 8.0 0.00 0.00 0.00 61 1007.3
20240619000040 87 186 1.0 10.0 0.00 0.00 0.00 61 1007.0
20240618234539 87 180 2.0 7.0 0.00 0.00 0.00 62 1006.9
20240618233038 87 204 3.0 9.0 0.00 0.00 0.00 61 1006.4
20240618231538 88 106 3.0 9.0 0.00 0.00 0.00 60 1006.2